Terminal Aerodrome Forecast
Issued by NWS Newport/Morehead City, NC

Home | Current Version | Previous Version | Graphics & Text | Print | Product List | Glossary On
Versions: 1 2 3 4 5 6 7 8 9 10 11 12 13 14 15 16 17 18 19 20 21 22 23 24 25 26 27 28 29 30 31
000
FTUS42 KMHX 230549
TAFEWN
TAF
KEWN 230549Z 2306/2406 01006KT P6SM VCSH BKN010 OVC020
     FM230700 VRB03KT 3SM BR OVC004
     FM231300 02004KT P6SM BKN015
     FM231700 03005KT P6SM VCSH BKN050
     FM240000 VRB03KT P6SM SCT050=

USA.gov is the U.S. government's official web portal to all federal, state and local government web resources and services.